sensor_id;sensor_type;location;lat;lon;timestamp;pressure;altitude;pressure_sealevel;temperature;humidity
74542;BME280;63015;45.378;20.360;2023-08-24T00:01:40;100637.94;;;25.92;60.61
74542;BME280;63015;45.378;20.360;2023-08-24T00:03:41;100636.59;;;25.85;61.08
74542;BME280;63015;45.378;20.360;2023-08-24T00:05:43;100636.59;;;25.85;61.03
74542;BME280;63015;45.378;20.360;2023-08-24T00:07:43;100643.16;;;25.79;61.26
74542;BME280;63015;45.378;20.360;2023-08-24T00:09:44;100644.13;;;25.78;61.12
74542;BME280;63015;45.378;20.360;2023-08-24T00:11:45;100644.13;;;25.78;61.19
74542;BME280;63015;45.378;20.360;2023-08-24T00:13:45;100639.72;;;25.77;61.28
74542;BME280;63015;45.378;20.360;2023-08-24T00:15:53;100635.44;;;25.74;61.37
74542;BME280;63015;45.378;20.360;2023-08-24T00:17:54;100642.75;;;25.71;61.29
74542;BME280;63015;45.378;20.360;2023-08-24T00:19:55;100641.13;;;25.68;61.22
74542;BME280;63015;45.378;20.360;2023-08-24T00:21:55;100638.56;;;25.67;61.18
74542;BME280;63015;45.378;20.360;2023-08-24T00:23:56;100638.56;;;25.67;61.19
74542;BME280;63015;45.378;20.360;2023-08-24T00:25:57;100643.31;;;25.61;61.47
74542;BME280;63015;45.378;20.360;2023-08-24T00:27:57;100647.97;;;25.58;61.77
74542;BME280;63015;45.378;20.360;2023-08-24T00:29:58;100643.41;;;25.46;62.68
74542;BME280;63015;45.378;20.360;2023-08-24T00:31:59;100646.44;;;25.39;63.06
74542;BME280;63015;45.378;20.360;2023-08-24T00:34:00;100648.59;;;25.33;62.99
74542;BME280;63015;45.378;20.360;2023-08-24T00:36:01;100643.16;;;25.34;62.84
74542;BME280;63015;45.378;20.360;2023-08-24T00:38:02;100645.91;;;25.33;62.87
74542;BME280;63015;45.378;20.360;2023-08-24T00:40:04;100648.75;;;25.29;63.36
74542;BME280;63015;45.378;20.360;2023-08-24T00:42:09;100652.28;;;25.30;63.05
74542;BME280;63015;45.378;20.360;2023-08-24T00:44:15;100655.06;;;25.28;63.07
74542;BME280;63015;45.378;20.360;2023-08-24T00:46:16;100654.53;;;25.22;63.79
74542;BME280;63015;45.378;20.360;2023-08-24T00:48:18;100655.28;;;25.09;65.37
74542;BME280;63015;45.378;20.360;2023-08-24T00:50:19;100645.88;;;25.18;63.81
74542;BME280;63015;45.378;20.360;2023-08-24T00:52:20;100655.56;;;25.19;64.04
74542;BME280;63015;45.378;20.360;2023-08-24T00:54:21;100647.66;;;25.18;64.47
74542;BME280;63015;45.378;20.360;2023-08-24T00:56:22;100650.44;;;25.16;64.55
74542;BME280;63015;45.378;20.360;2023-08-24T00:58:26;100648.34;;;25.21;64.23
74542;BME280;63015;45.378;20.360;2023-08-24T01:00:27;100651.13;;;25.20;64.47
74542;BME280;63015;45.378;20.360;2023-08-24T01:02:28;100654.91;;;25.16;64.57
74542;BME280;63015;45.378;20.360;2023-08-24T01:04:28;100654.03;;;25.15;65.05
74542;BME280;63015;45.378;20.360;2023-08-24T01:06:29;100655.97;;;25.13;64.80
74542;BME280;63015;45.378;20.360;2023-08-24T01:08:29;100657.16;;;25.07;65.78
74542;BME280;63015;45.378;20.360;2023-08-24T01:10:41;100654.94;;;25.00;66.30
74542;BME280;63015;45.378;20.360;2023-08-24T01:13:09;100651.06;;;25.05;66.09
74542;BME280;63015;45.378;20.360;2023-08-24T01:15:19;100651.06;;;25.05;65.62
74542;BME280;63015;45.378;20.360;2023-08-24T01:17:23;100645.56;;;25.08;65.36
74542;BME280;63015;45.378;20.360;2023-08-24T01:19:44;100648.56;;;25.02;65.51
74542;BME280;63015;45.378;20.360;2023-08-24T01:21:45;100639.38;;;25.08;65.22
74542;BME280;63015;45.378;20.360;2023-08-24T01:24:04;100639.97;;;25.13;65.70
74542;BME280;63015;45.378;20.360;2023-08-24T01:28:13;100647.44;;;25.06;66.08
74542;BME280;63015;45.378;20.360;2023-08-24T01:30:15;100643.44;;;24.99;66.21
74542;BME280;63015;45.378;20.360;2023-08-24T01:32:17;100637.91;;;25.02;65.88
74542;BME280;63015;45.378;20.360;2023-08-24T01:34:18;100634.50;;;25.00;66.05
74542;BME280;63015;45.378;20.360;2023-08-24T01:36:19;100640.84;;;24.98;65.81
74542;BME280;63015;45.378;20.360;2023-08-24T01:38:20;100634.50;;;25.00;65.80
74542;BME280;63015;45.378;20.360;2023-08-24T01:40:26;100645.41;;;24.95;66.67
74542;BME280;63015;45.378;20.360;2023-08-24T01:42:31;100641.28;;;24.90;66.90
74542;BME280;63015;45.378;20.360;2023-08-24T01:44:35;100645.50;;;24.94;66.42
74542;BME280;63015;45.378;20.360;2023-08-24T01:46:37;100645.84;;;24.88;66.87
74542;BME280;63015;45.378;20.360;2023-08-24T01:48:40;100647.72;;;24.86;66.96
74542;BME280;63015;45.378;20.360;2023-08-24T01:50:41;100657.78;;;24.81;66.77
74542;BME280;63015;45.378;20.360;2023-08-24T01:52:42;100656.25;;;24.60;68.23
74542;BME280;63015;45.378;20.360;2023-08-24T01:54:43;100653.72;;;24.57;68.05
74542;BME280;63015;45.378;20.360;2023-08-24T01:56:43;100650.03;;;24.60;67.87
74542;BME280;63015;45.378;20.360;2023-08-24T01:58:44;100645.34;;;24.65;67.54
74542;BME280;63015;45.378;20.360;2023-08-24T02:00:45;100646.22;;;24.66;67.63
74542;BME280;63015;45.378;20.360;2023-08-24T02:02:46;100645.50;;;24.62;67.59
74542;BME280;63015;45.378;20.360;2023-08-24T02:04:46;100646.22;;;24.66;67.58
74542;BME280;63015;45.378;20.360;2023-08-24T02:06:47;100651.00;;;24.59;67.87
74542;BME280;63015;45.378;20.360;2023-08-24T02:08:48;100652.47;;;24.65;67.76
74542;BME280;63015;45.378;20.360;2023-08-24T02:10:49;100651.94;;;24.58;67.74
74542;BME280;63015;45.378;20.360;2023-08-24T02:12:49;100646.72;;;24.56;68.08
74542;BME280;63015;45.378;20.360;2023-08-24T02:14:50;100651.94;;;24.58;67.93
74542;BME280;63015;45.378;20.360;2023-08-24T02:16:51;100644.03;;;24.56;68.04
74542;BME280;63015;45.378;20.360;2023-08-24T02:18:51;100643.25;;;24.54;67.80
74542;BME280;63015;45.378;20.360;2023-08-24T02:20:52;100639.06;;;24.50;67.90
74542;BME280;63015;45.378;20.360;2023-08-24T02:22:53;100640.78;;;24.51;68.02
74542;BME280;63015;45.378;20.360;2023-08-24T02:24:53;100635.28;;;24.38;68.54
74542;BME280;63015;45.378;20.360;2023-08-24T02:26:54;100639.63;;;24.39;68.32
74542;BME280;63015;45.378;20.360;2023-08-24T02:28:54;100640.50;;;24.40;68.23
74542;BME280;63015;45.378;20.360;2023-08-24T02:31:02;100645.66;;;24.43;68.04
74542;BME280;63015;45.378;20.360;2023-08-24T02:33:03;100640.50;;;24.40;67.84
74542;BME280;63015;45.378;20.360;2023-08-24T02:35:04;100645.94;;;24.38;68.37
74542;BME280;63015;45.378;20.360;2023-08-24T02:37:05;100646.25;;;24.32;68.62
74542;BME280;63015;45.378;20.360;2023-08-24T02:39:06;100655.09;;;24.33;68.68
74542;BME280;63015;45.378;20.360;2023-08-24T02:41:07;100649.34;;;24.24;68.70
74542;BME280;63015;45.378;20.360;2023-08-24T02:43:09;100651.91;;;24.26;69.05
74542;BME280;63015;45.378;20.360;2023-08-24T02:45:10;100645.06;;;24.22;69.04
74542;BME280;63015;45.378;20.360;2023-08-24T02:47:12;100641.50;;;24.21;69.15
74542;BME280;63015;45.378;20.360;2023-08-24T02:49:13;100646.16;;;24.18;69.62
74542;BME280;63015;45.378;20.360;2023-08-24T02:51:13;100656.81;;;24.18;69.21
74542;BME280;63015;45.378;20.360;2023-08-24T02:53:14;100656.97;;;24.14;69.29
74542;BME280;63015;45.378;20.360;2023-08-24T02:55:15;100660.56;;;24.13;69.55
74542;BME280;63015;45.378;20.360;2023-08-24T02:57:16;100664.09;;;24.14;69.51
74542;BME280;63015;45.378;20.360;2023-08-24T02:59:16;100663.81;;;24.03;70.40
74542;BME280;63015;45.378;20.360;2023-08-24T03:01:17;100664.50;;;24.06;69.87
74542;BME280;63015;45.378;20.360;2023-08-24T03:03:18;100662.78;;;24.05;69.76
74542;BME280;63015;45.378;20.360;2023-08-24T03:05:19;100667.25;;;24.05;69.74
74542;BME280;63015;45.378;20.360;2023-08-24T03:07:20;100670.78;;;24.05;69.63
74542;BME280;63015;45.378;20.360;2023-08-24T03:09:21;100668.28;;;24.02;69.52
74542;BME280;63015;45.378;20.360;2023-08-24T03:11:21;100666.47;;;24.03;69.54
74542;BME280;63015;45.378;20.360;2023-08-24T03:13:22;100668.53;;;23.97;69.64
74542;BME280;63015;45.378;20.360;2023-08-24T03:15:25;100667.91;;;23.92;70.38
74542;BME280;63015;45.378;20.360;2023-08-24T03:17:25;100666.97;;;23.93;70.04
74542;BME280;63015;45.378;20.360;2023-08-24T03:19:26;100663.44;;;23.93;69.98
74542;BME280;63015;45.378;20.360;2023-08-24T03:21:27;100668.59;;;23.96;70.03
74542;BME280;63015;45.378;20.360;2023-08-24T03:23:27;100665.94;;;23.96;69.87
74542;BME280;63015;45.378;20.360;2023-08-24T03:25:28;100664.13;;;23.96;69.76
74542;BME280;63015;45.378;20.360;2023-08-24T03:27:29;100676.59;;;23.96;69.73
74542;BME280;63015;45.378;20.360;2023-08-24T03:29:29;100676.97;;;23.88;70.16
74542;BME280;63015;45.378;20.360;2023-08-24T03:31:31;100676.19;;;23.86;70.33
74542;BME280;63015;45.378;20.360;2023-08-24T03:33:32;100682.38;;;23.87;69.94
74542;BME280;63015;45.378;20.360;2023-08-24T03:35:35;100694.44;;;23.76;70.81
74542;BME280;63015;45.378;20.360;2023-08-24T03:37:36;100687.31;;;23.77;70.43
74542;BME280;63015;45.378;20.360;2023-08-24T03:39:38;100683.84;;;23.75;70.77
74542;BME280;63015;45.378;20.360;2023-08-24T03:41:39;100681.13;;;23.76;70.52
74542;BME280;63015;45.378;20.360;2023-08-24T03:43:40;100685.66;;;23.74;70.51
74542;BME280;63015;45.378;20.360;2023-08-24T03:45:42;100678.63;;;23.73;70.88
74542;BME280;63015;45.378;20.360;2023-08-24T03:47:44;100686.69;;;23.72;70.77
74542;BME280;63015;45.378;20.360;2023-08-24T03:49:45;100677.81;;;23.71;70.59
74542;BME280;63015;45.378;20.360;2023-08-24T03:51:46;100676.13;;;23.70;70.68
74542;BME280;63015;45.378;20.360;2023-08-24T03:53:46;100676.13;;;23.70;70.70
74542;BME280;63015;45.378;20.360;2023-08-24T03:55:48;100683.22;;;23.70;70.55
74542;BME280;63015;45.378;20.360;2023-08-24T03:57:49;100679.94;;;23.64;71.23
74542;BME280;63015;45.378;20.360;2023-08-24T03:59:50;100679.81;;;23.68;70.77
74542;BME280;63015;45.378;20.360;2023-08-24T04:01:51;100687.16;;;23.62;71.53
74542;BME280;63015;45.378;20.360;2023-08-24T04:03:52;100686.28;;;23.62;71.28
74542;BME280;63015;45.378;20.360;2023-08-24T04:05:52;100682.78;;;23.61;71.26
74542;BME280;63015;45.378;20.360;2023-08-24T04:07:53;100687.22;;;23.61;71.57
74542;BME280;63015;45.378;20.360;2023-08-24T04:09:54;100689.19;;;23.57;71.55
74542;BME280;63015;45.378;20.360;2023-08-24T04:11:56;100691.78;;;23.59;71.52
74542;BME280;63015;45.378;20.360;2023-08-24T04:13:56;100693.50;;;23.60;71.10
74542;BME280;63015;45.378;20.360;2023-08-24T04:15:57;100705.38;;;23.53;72.79
74542;BME280;63015;45.378;20.360;2023-08-24T04:17:58;100704.75;;;23.47;72.11
74542;BME280;63015;45.378;20.360;2023-08-24T04:19:59;100705.69;;;23.46;71.96
74542;BME280;63015;45.378;20.360;2023-08-24T04:22:00;100705.56;;;23.50;72.01
74542;BME280;63015;45.378;20.360;2023-08-24T04:24:00;100707.88;;;23.56;71.68
74542;BME280;63015;45.378;20.360;2023-08-24T04:26:01;100699.91;;;23.56;71.64
74542;BME280;63015;45.378;20.360;2023-08-24T04:28:02;100710.31;;;23.60;71.46
74542;BME280;63015;45.378;20.360;2023-08-24T04:30:02;100714.69;;;23.61;71.84
74542;BME280;63015;45.378;20.360;2023-08-24T04:32:03;100703.75;;;23.68;71.56
74542;BME280;63015;45.378;20.360;2023-08-24T04:34:04;100716.03;;;23.70;71.50
74542;BME280;63015;45.378;20.360;2023-08-24T04:36:05;100722.91;;;23.74;71.67
74542;BME280;63015;45.378;20.360;2023-08-24T04:38:06;100709.75;;;23.71;71.83
74542;BME280;63015;45.378;20.360;2023-08-24T04:40:07;100712.97;;;23.78;71.50
74542;BME280;63015;45.378;20.360;2023-08-24T04:42:07;100719.53;;;23.71;71.88
74542;BME280;63015;45.378;20.360;2023-08-24T04:44:08;100712.19;;;23.76;71.95
74542;BME280;63015;45.378;20.360;2023-08-24T04:46:09;100710.94;;;23.83;71.62
74542;BME280;63015;45.378;20.360;2023-08-24T04:48:09;100716.25;;;23.83;71.83
74542;BME280;63015;45.378;20.360;2023-08-24T04:50:10;100720.13;;;23.95;71.58
74542;BME280;63015;45.378;20.360;2023-08-24T04:52:10;100716.13;;;24.04;71.44
74542;BME280;63015;45.378;20.360;2023-08-24T04:54:11;100723.91;;;24.07;71.61
74542;BME280;63015;45.378;20.360;2023-08-24T04:56:12;100716.41;;;24.15;71.24
74542;BME280;63015;45.378;20.360;2023-08-24T04:58:13;100717.16;;;24.17;71.16
74542;BME280;63015;45.378;20.360;2023-08-24T05:00:14;100721.78;;;24.13;71.73
74542;BME280;63015;45.378;20.360;2023-08-24T05:02:16;100716.41;;;24.15;72.08
74542;BME280;63015;45.378;20.360;2023-08-24T05:04:17;100721.75;;;24.31;71.05
74542;BME280;63015;45.378;20.360;2023-08-24T05:06:18;100724.84;;;24.39;70.56
74542;BME280;63015;45.378;20.360;2023-08-24T05:08:19;100718.19;;;24.48;70.62
74542;BME280;63015;45.378;20.360;2023-08-24T05:10:19;100722.16;;;24.57;70.80
74542;BME280;63015;45.378;20.360;2023-08-24T05:12:20;100721.75;;;24.65;70.30
74542;BME280;63015;45.378;20.360;2023-08-24T05:14:21;100732.63;;;24.60;70.55
74542;BME280;63015;45.378;20.360;2023-08-24T05:16:22;100729.41;;;24.71;70.37
74542;BME280;63015;45.378;20.360;2023-08-24T05:18:22;100722.75;;;24.62;71.10
74542;BME280;63015;45.378;20.360;2023-08-24T05:20:23;100723.06;;;24.73;70.18
74542;BME280;63015;45.378;20.360;2023-08-24T05:22:23;100721.50;;;24.85;69.92
74542;BME280;63015;45.378;20.360;2023-08-24T05:24:24;100728.66;;;24.85;69.92
74542;BME280;63015;45.378;20.360;2023-08-24T05:26:25;100722.19;;;24.89;69.98
74542;BME280;63015;45.378;20.360;2023-08-24T05:28:29;100725.97;;;25.01;69.47
74542;BME280;63015;45.378;20.360;2023-08-24T05:30:30;100721.56;;;25.16;68.95
74542;BME280;63015;45.378;20.360;2023-08-24T05:32:30;100717.78;;;25.20;69.34
74542;BME280;63015;45.378;20.360;2023-08-24T05:34:31;100725.00;;;25.34;68.54
74542;BME280;63015;45.378;20.360;2023-08-24T05:36:32;100725.31;;;25.43;68.12
74542;BME280;63015;45.378;20.360;2023-08-24T05:38:32;100726.72;;;25.65;67.84
74542;BME280;63015;45.378;20.360;2023-08-24T05:40:34;100720.09;;;25.72;67.71
74542;BME280;63015;45.378;20.360;2023-08-24T05:42:34;100718.88;;;25.92;66.80
74542;BME280;63015;45.378;20.360;2023-08-24T05:44:37;100718.06;;;26.06;66.83
74542;BME280;63015;45.378;20.360;2023-08-24T05:46:37;100720.81;;;26.05;66.54
74542;BME280;63015;45.378;20.360;2023-08-24T05:48:38;100723.97;;;26.12;66.00
74542;BME280;63015;45.378;20.360;2023-08-24T05:50:48;100715.13;;;26.11;66.04
74542;BME280;63015;45.378;20.360;2023-08-24T05:52:49;100726.94;;;26.36;65.31
74542;BME280;63015;45.378;20.360;2023-08-24T05:54:49;100723.97;;;26.55;65.02
74542;BME280;63015;45.378;20.360;2023-08-24T05:56:50;100721.97;;;26.58;64.72
74542;BME280;63015;45.378;20.360;2023-08-24T05:58:51;100726.81;;;26.81;63.79
74542;BME280;63015;45.378;20.360;2023-08-24T06:00:58;100733.84;;;26.96;63.46
74542;BME280;63015;45.378;20.360;2023-08-24T06:02:59;100730.34;;;27.08;63.09
74542;BME280;63015;45.378;20.360;2023-08-24T06:04:59;100727.00;;;27.19;62.57
74542;BME280;63015;45.378;20.360;2023-08-24T06:07:00;100736.31;;;27.27;62.21
74542;BME280;63015;45.378;20.360;2023-08-24T06:09:01;100733.50;;;27.43;62.04
74542;BME280;63015;45.378;20.360;2023-08-24T06:11:04;100728.16;;;27.43;61.15
74542;BME280;63015;45.378;20.360;2023-08-24T06:13:05;100734.59;;;27.53;61.35
74542;BME280;63015;45.378;20.360;2023-08-24T06:15:06;100732.38;;;27.72;61.00
74542;BME280;63015;45.378;20.360;2023-08-24T06:17:10;100732.53;;;27.84;60.56
74542;BME280;63015;45.378;20.360;2023-08-24T06:19:10;100726.94;;;28.00;60.06
74542;BME280;63015;45.378;20.360;2023-08-24T06:21:11;100730.84;;;28.09;59.83
74542;BME280;63015;45.378;20.360;2023-08-24T06:23:12;100731.69;;;28.09;59.36
74542;BME280;63015;45.378;20.360;2023-08-24T06:25:14;100734.78;;;28.42;59.08
74542;BME280;63015;45.378;20.360;2023-08-24T06:27:14;100735.94;;;28.50;58.31
74542;BME280;63015;45.378;20.360;2023-08-24T06:29:15;100729.44;;;28.79;57.40
74542;BME280;63015;45.378;20.360;2023-08-24T06:31:16;100736.66;;;28.78;57.49
74542;BME280;63015;45.378;20.360;2023-08-24T06:33:17;100739.56;;;28.99;56.65
74542;BME280;63015;45.378;20.360;2023-08-24T06:35:17;100733.72;;;29.18;56.30
74542;BME280;63015;45.378;20.360;2023-08-24T06:37:18;100740.25;;;29.27;55.68
74542;BME280;63015;45.378;20.360;2023-08-24T06:39:19;100738.19;;;29.55;54.26
74542;BME280;63015;45.378;20.360;2023-08-24T06:41:20;100736.44;;;29.06;55.40
74542;BME280;63015;45.378;20.360;2023-08-24T06:43:20;100731.34;;;29.62;54.63
74542;BME280;63015;45.378;20.360;2023-08-24T06:45:21;100742.50;;;29.80;54.56
74542;BME280;63015;45.378;20.360;2023-08-24T06:47:22;100738.56;;;30.20;53.83
74542;BME280;63015;45.378;20.360;2023-08-24T06:49:22;100737.81;;;30.41;52.70
74542;BME280;63015;45.378;20.360;2023-08-24T06:51:27;100740.28;;;30.78;51.78
74542;BME280;63015;45.378;20.360;2023-08-24T06:53:31;100736.38;;;30.25;52.50
74542;BME280;63015;45.378;20.360;2023-08-24T06:55:31;100739.16;;;30.80;51.62
74542;BME280;63015;45.378;20.360;2023-08-24T06:57:32;100743.03;;;31.10;51.03
74542;BME280;63015;45.378;20.360;2023-08-24T06:59:33;100736.59;;;31.34;50.51
74542;BME280;63015;45.378;20.360;2023-08-24T07:01:34;100743.09;;;31.53;49.95
74542;BME280;63015;45.378;20.360;2023-08-24T07:03:34;100746.19;;;31.80;49.09
74542;BME280;63015;45.378;20.360;2023-08-24T07:05:35;100749.25;;;32.18;48.28
74542;BME280;63015;45.378;20.360;2023-08-24T07:07:35;100748.03;;;32.32;47.85
74542;BME280;63015;45.378;20.360;2023-08-24T07:09:36;100747.56;;;32.58;47.81
74542;BME280;63015;45.378;20.360;2023-08-24T07:11:39;100750.06;;;32.50;47.47
74542;BME280;63015;45.378;20.360;2023-08-24T07:13:40;100748.16;;;32.71;46.97
74542;BME280;63015;45.378;20.360;2023-08-24T07:15:42;100749.81;;;33.03;46.26
74542;BME280;63015;45.378;20.360;2023-08-24T07:17:42;100744.41;;;32.84;46.85
74542;BME280;63015;45.378;20.360;2023-08-24T07:19:43;100748.09;;;32.83;46.37
74542;BME280;63015;45.378;20.360;2023-08-24T07:21:44;100747.25;;;32.82;45.51
74542;BME280;63015;45.378;20.360;2023-08-24T07:23:44;100750.06;;;32.50;46.17
74542;BME280;63015;45.378;20.360;2023-08-24T07:25:45;100754.94;;;32.56;46.85
74542;BME280;63015;45.378;20.360;2023-08-24T07:27:45;100748.84;;;33.04;45.83
74542;BME280;63015;45.378;20.360;2023-08-24T07:29:47;100747.88;;;33.35;45.16
74542;BME280;63015;45.378;20.360;2023-08-24T07:31:47;100749.28;;;33.09;45.40
74542;BME280;63015;45.378;20.360;2023-08-24T07:33:48;100749.56;;;33.26;44.94
74542;BME280;63015;45.378;20.360;2023-08-24T07:35:49;100752.13;;;33.76;44.37
74542;BME280;63015;45.378;20.360;2023-08-24T07:37:50;100752.03;;;34.16;43.45
74542;BME280;63015;45.378;20.360;2023-08-24T07:39:51;100745.88;;;34.23;43.91
74542;BME280;63015;45.378;20.360;2023-08-24T07:41:52;100753.69;;;34.36;42.88
74542;BME280;63015;45.378;20.360;2023-08-24T07:43:53;100753.69;;;34.36;42.74
74542;BME280;63015;45.378;20.360;2023-08-24T07:45:53;100745.13;;;34.51;42.39
74542;BME280;63015;45.378;20.360;2023-08-24T07:47:55;100757.28;;;34.17;41.51
74542;BME280;63015;45.378;20.360;2023-08-24T07:49:55;100747.41;;;34.46;42.43
74542;BME280;63015;45.378;20.360;2023-08-24T07:51:56;100746.03;;;34.59;42.32
74542;BME280;63015;45.378;20.360;2023-08-24T07:53:58;100752.00;;;33.88;42.35
74542;BME280;63015;45.378;20.360;2023-08-24T07:56:00;100748.31;;;34.64;41.13
74542;BME280;63015;45.378;20.360;2023-08-24T07:58:01;100745.78;;;34.81;41.01
74542;BME280;63015;45.378;20.360;2023-08-24T08:00:04;100753.41;;;34.95;40.90
74542;BME280;63015;45.378;20.360;2023-08-24T08:02:12;100751.94;;;35.55;39.75
74542;BME280;63015;45.378;20.360;2023-08-24T08:04:15;100748.41;;;35.36;39.66
74542;BME280;63015;45.378;20.360;2023-08-24T08:06:16;100741.28;;;35.53;39.40
74542;BME280;63015;45.378;20.360;2023-08-24T08:08:17;100742.59;;;35.94;39.14
74542;BME280;63015;45.378;20.360;2023-08-24T08:10:18;100743.94;;;35.45;39.66
74542;BME280;63015;45.378;20.360;2023-08-24T08:12:20;100740.22;;;35.91;38.57
74542;BME280;63015;45.378;20.360;2023-08-24T08:14:21;100745.84;;;34.99;39.42
74542;BME280;63015;45.378;20.360;2023-08-24T08:16:22;100746.28;;;33.81;41.80
74542;BME280;63015;45.378;20.360;2023-08-24T08:18:22;100747.28;;;34.37;41.35
74542;BME280;63015;45.378;20.360;2023-08-24T08:20:23;100745.06;;;35.06;40.84
74542;BME280;63015;45.378;20.360;2023-08-24T08:22:24;100754.19;;;35.60;39.74
74542;BME280;63015;45.378;20.360;2023-08-24T08:24:25;100751.50;;;35.60;39.61
74542;BME280;63015;45.378;20.360;2023-08-24T08:26:26;100742.03;;;36.08;38.96
74542;BME280;63015;45.378;20.360;2023-08-24T08:28:27;100740.72;;;36.47;37.93
74542;BME280;63015;45.378;20.360;2023-08-24T08:30:28;100743.97;;;36.67;37.82
74542;BME280;63015;45.378;20.360;2023-08-24T08:32:29;100753.94;;;36.50;37.54
74542;BME280;63015;45.378;20.360;2023-08-24T08:34:30;100751.34;;;36.83;37.00
74542;BME280;63015;45.378;20.360;2023-08-24T08:36:30;100758.19;;;36.52;37.21
74542;BME280;63015;45.378;20.360;2023-08-24T08:38:34;100748.34;;;37.02;36.39
74542;BME280;63015;45.378;20.360;2023-08-24T08:40:37;100750.88;;;36.45;36.28
74542;BME280;63015;45.378;20.360;2023-08-24T08:42:38;100746.78;;;36.14;37.42
74542;BME280;63015;45.378;20.360;2023-08-24T08:44:41;100750.06;;;35.92;36.85
74542;BME280;63015;45.378;20.360;2023-08-24T08:46:43;100746.50;;;36.60;36.62
74542;BME280;63015;45.378;20.360;2023-08-24T08:48:45;100750.34;;;36.84;36.18
74542;BME280;63015;45.378;20.360;2023-08-24T08:50:48;100750.91;;;35.74;36.79
74542;BME280;63015;45.378;20.360;2023-08-24T08:52:50;100750.69;;;36.46;36.87
74542;BME280;63015;45.378;20.360;2023-08-24T08:54:50;100753.31;;;36.30;36.56
74542;BME280;63015;45.378;20.360;2023-08-24T08:56:52;100751.41;;;36.22;36.67
74542;BME280;63015;45.378;20.360;2023-08-24T08:58:55;100753.00;;;36.67;36.18
74542;BME280;63015;45.378;20.360;2023-08-24T09:00:57;100744.53;;;36.79;36.24
74542;BME280;63015;45.378;20.360;2023-08-24T09:03:01;100746.31;;;36.96;35.85
74542;BME280;63015;45.378;20.360;2023-08-24T09:05:03;100743.25;;;37.16;35.75
74542;BME280;63015;45.378;20.360;2023-08-24T09:07:04;100747.22;;;36.70;36.03
74542;BME280;63015;45.378;20.360;2023-08-24T09:09:11;100743.94;;;36.93;35.75
74542;BME280;63015;45.378;20.360;2023-08-24T09:11:12;100738.25;;;37.46;35.51
74542;BME280;63015;45.378;20.360;2023-08-24T09:13:13;100744.28;;;36.56;36.60
74542;BME280;63015;45.378;20.360;2023-08-24T09:15:13;100739.03;;;37.13;35.17
74542;BME280;63015;45.378;20.360;2023-08-24T09:17:21;100744.38;;;36.80;35.38
74542;BME280;63015;45.378;20.360;2023-08-24T09:19:29;100742.09;;;37.27;35.11
74542;BME280;63015;45.378;20.360;2023-08-24T09:21:30;100744.94;;;37.00;35.44
74542;BME280;63015;45.378;20.360;2023-08-24T09:23:31;100747.22;;;36.70;35.84
74542;BME280;63015;45.378;20.360;2023-08-24T09:25:32;100745.31;;;37.14;34.73
74542;BME280;63015;45.378;20.360;2023-08-24T09:27:34;100734.25;;;36.91;35.10
74542;BME280;63015;45.378;20.360;2023-08-24T09:29:36;100736.88;;;37.33;35.29
74542;BME280;63015;45.378;20.360;2023-08-24T09:31:38;100742.28;;;37.75;34.13
74542;BME280;63015;45.378;20.360;2023-08-24T09:33:43;100741.44;;;37.41;34.26
74542;BME280;63015;45.378;20.360;2023-08-24T09:35:52;100739.53;;;37.17;34.46
74542;BME280;63015;45.378;20.360;2023-08-24T09:37:53;100736.91;;;36.74;34.53
74542;BME280;63015;45.378;20.360;2023-08-24T09:40:02;100737.34;;;37.12;33.94
74542;BME280;63015;45.378;20.360;2023-08-24T09:42:07;100734.00;;;37.43;33.92
74542;BME280;63015;45.378;20.360;2023-08-24T09:44:09;100736.31;;;37.13;34.09
74542;BME280;63015;45.378;20.360;2023-08-24T09:46:11;100730.31;;;36.85;34.11
74542;BME280;63015;45.378;20.360;2023-08-24T09:48:11;100733.09;;;37.18;33.67
74542;BME280;63015;45.378;20.360;2023-08-24T09:50:12;100737.84;;;37.16;34.36
74542;BME280;63015;45.378;20.360;2023-08-24T09:52:13;100737.69;;;37.34;33.93
74542;BME280;63015;45.378;20.360;2023-08-24T09:54:16;100733.59;;;34.39;36.65
74542;BME280;63015;45.378;20.360;2023-08-24T09:56:17;100732.22;;;35.45;35.94
74542;BME280;63015;45.378;20.360;2023-08-24T09:58:20;100734.84;;;34.72;36.97
74542;BME280;63015;45.378;20.360;2023-08-24T10:00:22;100726.44;;;34.75;36.90
74542;BME280;63015;45.378;20.360;2023-08-24T10:02:27;100727.28;;;35.22;34.57
74542;BME280;63015;45.378;20.360;2023-08-24T10:04:33;100726.22;;;35.77;34.31
74542;BME280;63015;45.378;20.360;2023-08-24T10:06:36;100727.72;;;36.32;33.97
74542;BME280;63015;45.378;20.360;2023-08-24T10:08:44;100723.97;;;35.99;33.82
74542;BME280;63015;45.378;20.360;2023-08-24T10:10:49;100722.97;;;36.00;33.84
74542;BME280;63015;45.378;20.360;2023-08-24T10:12:59;100734.09;;;35.70;33.77
74542;BME280;63015;45.378;20.360;2023-08-24T10:15:01;100724.97;;;35.27;35.46
74542;BME280;63015;45.378;20.360;2023-08-24T10:17:09;100721.69;;;35.60;35.15
74542;BME280;63015;45.378;20.360;2023-08-24T10:19:12;100717.00;;;35.44;34.57
74542;BME280;63015;45.378;20.360;2023-08-24T10:21:13;100725.13;;;35.44;34.35
74542;BME280;63015;45.378;20.360;2023-08-24T10:23:17;100726.50;;;35.30;33.92
74542;BME280;63015;45.378;20.360;2023-08-24T10:25:20;100714.34;;;34.70;34.99
74542;BME280;63015;45.378;20.360;2023-08-24T10:27:27;100710.66;;;35.35;34.91
74542;BME280;63015;45.378;20.360;2023-08-24T10:29:29;100708.34;;;35.66;32.10
74542;BME280;63015;45.378;20.360;2023-08-24T10:31:30;100713.31;;;35.97;32.45